Bradley International Airport

Airport
ICAO code: 
KBDL
Summary
ICAO Region: 
NAM
Territory: 
Location: 
Windsor Locks, Connecticut,
Coordinates: 
Aerial View: 
41° 55' 43.273" N, 72° 41' 1.943" W
Metar
Observation
KBDL 051051Z 00000KT 10SM BKN160 OVC250 00/M04 A3030 RMK AO2 SLP262 T00001044
Station
Windsor Locks, Bradley International Airport
Date/Time
2021-12-05 10:51:00
Wind direction
Wind speed
00 kts
Lowest cloud amount
broken clouds
Temperature
0°C
Dew point
-4.4°C
Humidity
72%
Weather condition
n/a

Description

Bradley International Airport is a joint civil-military (ANG) public airport located in Windsor Locks on the border with East Granby and Suffield, in Hartford County, Connecticut.

Climatology

Humid “subtropical”/Continental climate (Köppen climate classification Cfa/Dfa) - characterized by hot, humid summers and cool/cold winters. Significant amounts of precipitation occur in all seasons in most areas. Winter rainfall (and snowfall) is associated with large storms that the westerlies steer from west to east. Most summer rainfall occurs during thunderstorms.

Runways

Designator Length Width Surface Rops
1/19 1568 30 ASP Yes/Yes
15/33 2087 46 ASP Yes/Yes
6/24 2899 61 ASP Yes/Yes
Airport map: 
Aerial View: 

SKYbrary Partners:

Safety knowledge contributed by: